sensor_id;sensor_type;location;lat;lon;timestamp;P1;durP1;ratioP1;P2;durP2;ratioP2
57822;SDS011;43650;48.064;20.624;2023-02-18T00:00:39;27.07;;;11.57;;
57822;SDS011;43650;48.064;20.624;2023-02-18T00:01:40;27.33;;;11.95;;
57822;SDS011;43650;48.064;20.624;2023-02-18T00:02:40;18.33;;;9.98;;
57822;SDS011;43650;48.064;20.624;2023-02-18T00:03:41;22.80;;;10.93;;
57822;SDS011;43650;48.064;20.624;2023-02-18T00:04:41;21.33;;;10.53;;
57822;SDS011;43650;48.064;20.624;2023-02-18T00:05:42;19.50;;;11.17;;
57822;SDS011;43650;48.064;20.624;2023-02-18T00:06:42;21.00;;;11.83;;
57822;SDS011;43650;48.064;20.624;2023-02-18T00:07:43;19.95;;;9.63;;
57822;SDS011;43650;48.064;20.624;2023-02-18T00:08:45;19.37;;;10.23;;
57822;SDS011;43650;48.064;20.624;2023-02-18T00:09:46;21.15;;;11.63;;
57822;SDS011;43650;48.064;20.624;2023-02-18T00:10:47;23.07;;;12.20;;
57822;SDS011;43650;48.064;20.624;2023-02-18T00:11:47;16.53;;;9.57;;
57822;SDS011;43650;48.064;20.624;2023-02-18T00:12:48;19.30;;;10.55;;
57822;SDS011;43650;48.064;20.624;2023-02-18T00:13:49;18.87;;;10.53;;
57822;SDS011;43650;48.064;20.624;2023-02-18T00:14:54;19.40;;;9.88;;
57822;SDS011;43650;48.064;20.624;2023-02-18T00:15:59;22.57;;;11.07;;
57822;SDS011;43650;48.064;20.624;2023-02-18T00:17:00;18.65;;;10.38;;
57822;SDS011;43650;48.064;20.624;2023-02-18T00:18:00;17.33;;;9.93;;
57822;SDS011;43650;48.064;20.624;2023-02-18T00:19:02;20.10;;;10.27;;
57822;SDS011;43650;48.064;20.624;2023-02-18T00:20:05;21.20;;;11.77;;
57822;SDS011;43650;48.064;20.624;2023-02-18T00:21:06;18.58;;;9.38;;
57822;SDS011;43650;48.064;20.624;2023-02-18T00:22:07;26.33;;;12.55;;
57822;SDS011;43650;48.064;20.624;2023-02-18T00:23:08;25.20;;;11.90;;
57822;SDS011;43650;48.064;20.624;2023-02-18T00:24:08;21.33;;;10.77;;
57822;SDS011;43650;48.064;20.624;2023-02-18T00:25:11;21.45;;;11.12;;
57822;SDS011;43650;48.064;20.624;2023-02-18T00:26:12;20.77;;;11.33;;
57822;SDS011;43650;48.064;20.624;2023-02-18T00:27:14;19.70;;;9.98;;
57822;SDS011;43650;48.064;20.624;2023-02-18T00:28:15;21.52;;;11.60;;
57822;SDS011;43650;48.064;20.624;2023-02-18T00:29:15;19.43;;;10.03;;
57822;SDS011;43650;48.064;20.624;2023-02-18T00:30:16;21.87;;;10.87;;
57822;SDS011;43650;48.064;20.624;2023-02-18T00:31:17;21.90;;;10.27;;
57822;SDS011;43650;48.064;20.624;2023-02-18T00:32:18;21.33;;;11.02;;
57822;SDS011;43650;48.064;20.624;2023-02-18T00:33:19;19.33;;;11.37;;
57822;SDS011;43650;48.064;20.624;2023-02-18T00:34:19;16.87;;;10.40;;
57822;SDS011;43650;48.064;20.624;2023-02-18T00:35:20;18.03;;;10.20;;
57822;SDS011;43650;48.064;20.624;2023-02-18T00:36:21;18.87;;;10.93;;
57822;SDS011;43650;48.064;20.624;2023-02-18T00:38:22;21.20;;;11.43;;
57822;SDS011;43650;48.064;20.624;2023-02-18T00:39:23;22.77;;;12.50;;
57822;SDS011;43650;48.064;20.624;2023-02-18T00:40:23;17.23;;;9.33;;
57822;SDS011;43650;48.064;20.624;2023-02-18T00:41:24;21.00;;;10.87;;
57822;SDS011;43650;48.064;20.624;2023-02-18T00:42:25;21.35;;;11.93;;
57822;SDS011;43650;48.064;20.624;2023-02-18T00:43:26;19.40;;;10.43;;
57822;SDS011;43650;48.064;20.624;2023-02-18T00:44:26;24.73;;;11.02;;
57822;SDS011;43650;48.064;20.624;2023-02-18T00:45:27;20.57;;;11.07;;
57822;SDS011;43650;48.064;20.624;2023-02-18T00:46:27;16.90;;;9.63;;
57822;SDS011;43650;48.064;20.624;2023-02-18T00:47:28;20.02;;;10.52;;
57822;SDS011;43650;48.064;20.624;2023-02-18T00:48:28;21.27;;;11.30;;
57822;SDS011;43650;48.064;20.624;2023-02-18T00:49:29;19.90;;;11.30;;
57822;SDS011;43650;48.064;20.624;2023-02-18T00:50:30;16.08;;;9.93;;
57822;SDS011;43650;48.064;20.624;2023-02-18T00:51:30;21.73;;;10.73;;
57822;SDS011;43650;48.064;20.624;2023-02-18T00:52:31;23.13;;;11.50;;
57822;SDS011;43650;48.064;20.624;2023-02-18T00:53:31;17.97;;;11.10;;
57822;SDS011;43650;48.064;20.624;2023-02-18T00:54:32;23.73;;;9.83;;
57822;SDS011;43650;48.064;20.624;2023-02-18T00:55:37;20.70;;;10.65;;
57822;SDS011;43650;48.064;20.624;2023-02-18T00:56:41;24.02;;;10.70;;
57822;SDS011;43650;48.064;20.624;2023-02-18T00:57:41;21.90;;;11.30;;
57822;SDS011;43650;48.064;20.624;2023-02-18T00:58:41;19.33;;;11.47;;
57822;SDS011;43650;48.064;20.624;2023-02-18T00:59:42;21.73;;;10.67;;
57822;SDS011;43650;48.064;20.624;2023-02-18T01:00:42;19.70;;;12.03;;
57822;SDS011;43650;48.064;20.624;2023-02-18T01:01:43;17.77;;;9.77;;
57822;SDS011;43650;48.064;20.624;2023-02-18T01:02:43;18.73;;;9.73;;
57822;SDS011;43650;48.064;20.624;2023-02-18T01:03:44;15.27;;;8.60;;
57822;SDS011;43650;48.064;20.624;2023-02-18T01:04:44;18.83;;;10.47;;
57822;SDS011;43650;48.064;20.624;2023-02-18T01:05:45;17.93;;;9.10;;
57822;SDS011;43650;48.064;20.624;2023-02-18T01:06:46;19.33;;;9.43;;
57822;SDS011;43650;48.064;20.624;2023-02-18T01:07:47;18.83;;;10.27;;
57822;SDS011;43650;48.064;20.624;2023-02-18T01:08:47;17.00;;;9.13;;
57822;SDS011;43650;48.064;20.624;2023-02-18T01:09:48;18.77;;;9.82;;
57822;SDS011;43650;48.064;20.624;2023-02-18T01:10:51;15.23;;;9.20;;
57822;SDS011;43650;48.064;20.624;2023-02-18T01:11:53;19.02;;;10.13;;
57822;SDS011;43650;48.064;20.624;2023-02-18T01:12:53;23.50;;;11.93;;
57822;SDS011;43650;48.064;20.624;2023-02-18T01:13:54;19.90;;;11.15;;
57822;SDS011;43650;48.064;20.624;2023-02-18T01:14:54;19.73;;;9.60;;
57822;SDS011;43650;48.064;20.624;2023-02-18T01:15:55;16.83;;;8.57;;
57822;SDS011;43650;48.064;20.624;2023-02-18T01:16:55;17.87;;;9.67;;
57822;SDS011;43650;48.064;20.624;2023-02-18T01:17:56;18.30;;;9.83;;
57822;SDS011;43650;48.064;20.624;2023-02-18T01:18:56;17.47;;;8.00;;
57822;SDS011;43650;48.064;20.624;2023-02-18T01:19:56;15.80;;;9.23;;
57822;SDS011;43650;48.064;20.624;2023-02-18T01:20:57;15.63;;;9.93;;
57822;SDS011;43650;48.064;20.624;2023-02-18T01:21:57;15.13;;;8.87;;
57822;SDS011;43650;48.064;20.624;2023-02-18T01:22:58;22.33;;;9.30;;
57822;SDS011;43650;48.064;20.624;2023-02-18T01:23:58;17.93;;;9.20;;
57822;SDS011;43650;48.064;20.624;2023-02-18T01:24:59;15.30;;;9.40;;
57822;SDS011;43650;48.064;20.624;2023-02-18T01:25:59;17.17;;;9.50;;
57822;SDS011;43650;48.064;20.624;2023-02-18T01:26:59;15.47;;;8.77;;
57822;SDS011;43650;48.064;20.624;2023-02-18T01:28:00;18.93;;;9.07;;
57822;SDS011;43650;48.064;20.624;2023-02-18T01:29:00;20.02;;;10.15;;
57822;SDS011;43650;48.064;20.624;2023-02-18T01:30:02;18.13;;;8.50;;
57822;SDS011;43650;48.064;20.624;2023-02-18T01:31:06;15.45;;;8.25;;
57822;SDS011;43650;48.064;20.624;2023-02-18T01:32:07;16.80;;;9.43;;
57822;SDS011;43650;48.064;20.624;2023-02-18T01:33:08;21.10;;;9.80;;
57822;SDS011;43650;48.064;20.624;2023-02-18T01:34:08;16.73;;;9.77;;
57822;SDS011;43650;48.064;20.624;2023-02-18T01:35:10;15.17;;;8.57;;
57822;SDS011;43650;48.064;20.624;2023-02-18T01:36:12;20.17;;;9.98;;
57822;SDS011;43650;48.064;20.624;2023-02-18T01:37:12;14.38;;;8.95;;
57822;SDS011;43650;48.064;20.624;2023-02-18T01:38:13;17.77;;;10.33;;
57822;SDS011;43650;48.064;20.624;2023-02-18T01:39:13;15.33;;;9.53;;
57822;SDS011;43650;48.064;20.624;2023-02-18T01:40:14;13.50;;;8.67;;
57822;SDS011;43650;48.064;20.624;2023-02-18T01:41:19;15.75;;;8.90;;
57822;SDS011;43650;48.064;20.624;2023-02-18T01:42:20;15.40;;;8.38;;
57822;SDS011;43650;48.064;20.624;2023-02-18T01:43:23;13.55;;;7.82;;
57822;SDS011;43650;48.064;20.624;2023-02-18T01:44:24;14.43;;;7.57;;
57822;SDS011;43650;48.064;20.624;2023-02-18T01:46:32;17.15;;;7.85;;
57822;SDS011;43650;48.064;20.624;2023-02-18T01:47:33;17.13;;;8.90;;
57822;SDS011;43650;48.064;20.624;2023-02-18T01:49:45;14.93;;;8.45;;
57822;SDS011;43650;48.064;20.624;2023-02-18T01:50:50;15.68;;;8.85;;
57822;SDS011;43650;48.064;20.624;2023-02-18T01:52:31;15.82;;;8.40;;
57822;SDS011;43650;48.064;20.624;2023-02-18T01:53:35;16.58;;;9.10;;
57822;SDS011;43650;48.064;20.624;2023-02-18T01:54:43;15.20;;;8.43;;
57822;SDS011;43650;48.064;20.624;2023-02-18T01:55:46;15.25;;;8.38;;
57822;SDS011;43650;48.064;20.624;2023-02-18T01:57:02;15.00;;;7.43;;
57822;SDS011;43650;48.064;20.624;2023-02-18T01:58:07;15.68;;;8.18;;
57822;SDS011;43650;48.064;20.624;2023-02-18T01:59:09;15.43;;;7.65;;
57822;SDS011;43650;48.064;20.624;2023-02-18T02:00:13;13.82;;;7.53;;
57822;SDS011;43650;48.064;20.624;2023-02-18T02:01:16;17.58;;;8.65;;
57822;SDS011;43650;48.064;20.624;2023-02-18T02:02:18;15.20;;;7.97;;
57822;SDS011;43650;48.064;20.624;2023-02-18T02:03:19;22.17;;;9.32;;
57822;SDS011;43650;48.064;20.624;2023-02-18T02:04:20;14.80;;;7.87;;
57822;SDS011;43650;48.064;20.624;2023-02-18T02:05:21;17.23;;;9.77;;
57822;SDS011;43650;48.064;20.624;2023-02-18T02:06:21;15.33;;;8.37;;
57822;SDS011;43650;48.064;20.624;2023-02-18T02:08:24;15.27;;;7.35;;
57822;SDS011;43650;48.064;20.624;2023-02-18T02:09:25;14.27;;;7.83;;
57822;SDS011;43650;48.064;20.624;2023-02-18T02:10:35;18.37;;;7.10;;
57822;SDS011;43650;48.064;20.624;2023-02-18T02:13:20;12.55;;;7.72;;
57822;SDS011;43650;48.064;20.624;2023-02-18T02:16:18;12.27;;;6.78;;
57822;SDS011;43650;48.064;20.624;2023-02-18T02:17:35;12.88;;;7.43;;
57822;SDS011;43650;48.064;20.624;2023-02-18T02:18:55;18.25;;;7.87;;
57822;SDS011;43650;48.064;20.624;2023-02-18T02:22:33;14.10;;;7.43;;
57822;SDS011;43650;48.064;20.624;2023-02-18T02:27:28;12.60;;;6.70;;
57822;SDS011;43650;48.064;20.624;2023-02-18T02:35:48;15.43;;;7.40;;
57822;SDS011;43650;48.064;20.624;2023-02-18T02:38:23;10.68;;;6.45;;
57822;SDS011;43650;48.064;20.624;2023-02-18T02:47:20;11.10;;;6.03;;
57822;SDS011;43650;48.064;20.624;2023-02-18T02:52:49;11.20;;;6.50;;
57822;SDS011;43650;48.064;20.624;2023-02-18T02:53:52;11.82;;;7.22;;
57822;SDS011;43650;48.064;20.624;2023-02-18T02:54:52;11.50;;;6.13;;
57822;SDS011;43650;48.064;20.624;2023-02-18T02:55:52;11.07;;;6.43;;
57822;SDS011;43650;48.064;20.624;2023-02-18T02:57:05;10.85;;;5.80;;
57822;SDS011;43650;48.064;20.624;2023-02-18T02:58:28;10.43;;;5.30;;
57822;SDS011;43650;48.064;20.624;2023-02-18T02:59:29;7.77;;;5.10;;
57822;SDS011;43650;48.064;20.624;2023-02-18T03:03:34;14.25;;;5.60;;
57822;SDS011;43650;48.064;20.624;2023-02-18T03:06:01;10.27;;;5.90;;
57822;SDS011;43650;48.064;20.624;2023-02-18T03:08:07;8.73;;;4.90;;
57822;SDS011;43650;48.064;20.624;2023-02-18T03:10:39;11.65;;;6.28;;
57822;SDS011;43650;48.064;20.624;2023-02-18T03:11:48;7.53;;;4.85;;
57822;SDS011;43650;48.064;20.624;2023-02-18T03:14:34;9.68;;;4.90;;
57822;SDS011;43650;48.064;20.624;2023-02-18T03:15:58;9.95;;;4.85;;
57822;SDS011;43650;48.064;20.624;2023-02-18T03:17:15;9.98;;;4.30;;
57822;SDS011;43650;48.064;20.624;2023-02-18T03:20:49;9.80;;;3.80;;
57822;SDS011;43650;48.064;20.624;2023-02-18T03:23:06;8.48;;;4.57;;
57822;SDS011;43650;48.064;20.624;2023-02-18T03:24:15;7.10;;;4.45;;
57822;SDS011;43650;48.064;20.624;2023-02-18T03:25:19;9.25;;;4.50;;
57822;SDS011;43650;48.064;20.624;2023-02-18T03:26:20;10.55;;;5.65;;
57822;SDS011;43650;48.064;20.624;2023-02-18T03:27:27;7.53;;;4.25;;
57822;SDS011;43650;48.064;20.624;2023-02-18T03:28:30;12.98;;;5.07;;
57822;SDS011;43650;48.064;20.624;2023-02-18T03:29:31;10.60;;;4.60;;
57822;SDS011;43650;48.064;20.624;2023-02-18T03:31:39;6.00;;;3.97;;
57822;SDS011;43650;48.064;20.624;2023-02-18T03:32:40;7.12;;;4.25;;
57822;SDS011;43650;48.064;20.624;2023-02-18T03:33:48;7.68;;;4.18;;
57822;SDS011;43650;48.064;20.624;2023-02-18T03:35:02;7.00;;;4.05;;
57822;SDS011;43650;48.064;20.624;2023-02-18T03:36:05;8.60;;;4.43;;
57822;SDS011;43650;48.064;20.624;2023-02-18T03:37:06;7.15;;;3.85;;
57822;SDS011;43650;48.064;20.624;2023-02-18T03:38:11;9.05;;;4.40;;
57822;SDS011;43650;48.064;20.624;2023-02-18T03:39:16;5.55;;;3.62;;
57822;SDS011;43650;48.064;20.624;2023-02-18T03:40:18;8.88;;;5.15;;
57822;SDS011;43650;48.064;20.624;2023-02-18T03:41:19;5.40;;;3.93;;
57822;SDS011;43650;48.064;20.624;2023-02-18T03:42:23;6.85;;;3.92;;
57822;SDS011;43650;48.064;20.624;2023-02-18T03:43:25;7.53;;;3.95;;
57822;SDS011;43650;48.064;20.624;2023-02-18T03:44:25;6.77;;;4.23;;
57822;SDS011;43650;48.064;20.624;2023-02-18T03:45:26;9.13;;;4.37;;
57822;SDS011;43650;48.064;20.624;2023-02-18T03:46:27;6.87;;;4.37;;
57822;SDS011;43650;48.064;20.624;2023-02-18T03:47:28;7.57;;;3.78;;
57822;SDS011;43650;48.064;20.624;2023-02-18T03:48:28;7.40;;;3.87;;
57822;SDS011;43650;48.064;20.624;2023-02-18T03:49:29;7.03;;;4.03;;
57822;SDS011;43650;48.064;20.624;2023-02-18T03:50:29;6.60;;;4.20;;
57822;SDS011;43650;48.064;20.624;2023-02-18T03:51:30;11.67;;;4.23;;
57822;SDS011;43650;48.064;20.624;2023-02-18T03:52:30;7.75;;;3.55;;
57822;SDS011;43650;48.064;20.624;2023-02-18T03:53:31;6.93;;;4.10;;
57822;SDS011;43650;48.064;20.624;2023-02-18T03:54:31;9.27;;;4.13;;
57822;SDS011;43650;48.064;20.624;2023-02-18T03:55:32;4.80;;;3.33;;
57822;SDS011;43650;48.064;20.624;2023-02-18T03:56:33;6.23;;;3.87;;
57822;SDS011;43650;48.064;20.624;2023-02-18T03:57:34;6.43;;;4.00;;
57822;SDS011;43650;48.064;20.624;2023-02-18T03:58:34;7.13;;;4.17;;
57822;SDS011;43650;48.064;20.624;2023-02-18T03:59:35;5.97;;;3.80;;
57822;SDS011;43650;48.064;20.624;2023-02-18T04:00:35;5.87;;;3.27;;
57822;SDS011;43650;48.064;20.624;2023-02-18T04:01:36;5.73;;;3.30;;
57822;SDS011;43650;48.064;20.624;2023-02-18T04:02:36;6.47;;;3.83;;
57822;SDS011;43650;48.064;20.624;2023-02-18T04:03:37;7.17;;;3.60;;
57822;SDS011;43650;48.064;20.624;2023-02-18T04:04:37;6.10;;;3.40;;
57822;SDS011;43650;48.064;20.624;2023-02-18T04:05:38;6.83;;;3.77;;
57822;SDS011;43650;48.064;20.624;2023-02-18T04:06:38;6.57;;;3.50;;
57822;SDS011;43650;48.064;20.624;2023-02-18T04:07:38;5.83;;;3.27;;
57822;SDS011;43650;48.064;20.624;2023-02-18T04:08:39;6.53;;;3.60;;
57822;SDS011;43650;48.064;20.624;2023-02-18T04:09:39;4.87;;;3.33;;
57822;SDS011;43650;48.064;20.624;2023-02-18T04:10:40;5.20;;;3.43;;
57822;SDS011;43650;48.064;20.624;2023-02-18T04:11:40;4.83;;;3.03;;
57822;SDS011;43650;48.064;20.624;2023-02-18T04:12:41;3.95;;;2.78;;
57822;SDS011;43650;48.064;20.624;2023-02-18T04:13:41;6.03;;;2.90;;
57822;SDS011;43650;48.064;20.624;2023-02-18T04:14:41;3.80;;;2.93;;
57822;SDS011;43650;48.064;20.624;2023-02-18T04:15:45;5.13;;;3.10;;
57822;SDS011;43650;48.064;20.624;2023-02-18T04:16:45;6.05;;;3.20;;
57822;SDS011;43650;48.064;20.624;2023-02-18T04:17:46;4.27;;;2.90;;
57822;SDS011;43650;48.064;20.624;2023-02-18T04:18:46;6.27;;;3.77;;
57822;SDS011;43650;48.064;20.624;2023-02-18T04:19:47;5.30;;;2.80;;
57822;SDS011;43650;48.064;20.624;2023-02-18T04:20:47;5.33;;;2.80;;
57822;SDS011;43650;48.064;20.624;2023-02-18T04:21:47;7.10;;;3.40;;
57822;SDS011;43650;48.064;20.624;2023-02-18T04:22:48;5.83;;;3.33;;
57822;SDS011;43650;48.064;20.624;2023-02-18T04:23:48;5.17;;;3.33;;
57822;SDS011;43650;48.064;20.624;2023-02-18T04:24:49;5.47;;;2.97;;
57822;SDS011;43650;48.064;20.624;2023-02-18T04:25:49;6.30;;;2.73;;
57822;SDS011;43650;48.064;20.624;2023-02-18T04:26:50;4.10;;;2.83;;
57822;SDS011;43650;48.064;20.624;2023-02-18T04:27:50;3.67;;;3.00;;
57822;SDS011;43650;48.064;20.624;2023-02-18T04:28:50;6.03;;;3.60;;
57822;SDS011;43650;48.064;20.624;2023-02-18T04:29:51;3.10;;;2.67;;
57822;SDS011;43650;48.064;20.624;2023-02-18T04:30:52;3.87;;;2.28;;
57822;SDS011;43650;48.064;20.624;2023-02-18T04:31:52;5.17;;;3.00;;
57822;SDS011;43650;48.064;20.624;2023-02-18T04:32:53;2.93;;;2.33;;
57822;SDS011;43650;48.064;20.624;2023-02-18T04:33:53;4.97;;;2.63;;
57822;SDS011;43650;48.064;20.624;2023-02-18T04:34:53;4.60;;;2.07;;
57822;SDS011;43650;48.064;20.624;2023-02-18T04:35:54;7.80;;;2.70;;
57822;SDS011;43650;48.064;20.624;2023-02-18T04:36:54;8.17;;;2.60;;
57822;SDS011;43650;48.064;20.624;2023-02-18T04:37:55;5.53;;;2.33;;
57822;SDS011;43650;48.064;20.624;2023-02-18T04:38:55;3.23;;;2.10;;
57822;SDS011;43650;48.064;20.624;2023-02-18T04:39:56;4.80;;;2.10;;
57822;SDS011;43650;48.064;20.624;2023-02-18T04:40:56;3.07;;;2.47;;
57822;SDS011;43650;48.064;20.624;2023-02-18T04:41:57;5.00;;;2.30;;
57822;SDS011;43650;48.064;20.624;2023-02-18T04:42:57;4.53;;;2.77;;
57822;SDS011;43650;48.064;20.624;2023-02-18T04:43:58;4.60;;;3.08;;
57822;SDS011;43650;48.064;20.624;2023-02-18T04:44:59;3.65;;;2.20;;
57822;SDS011;43650;48.064;20.624;2023-02-18T04:46:00;3.40;;;2.30;;
57822;SDS011;43650;48.064;20.624;2023-02-18T04:47:00;3.67;;;2.60;;
57822;SDS011;43650;48.064;20.624;2023-02-18T04:48:01;3.35;;;2.40;;
57822;SDS011;43650;48.064;20.624;2023-02-18T04:49:02;7.23;;;2.97;;
57822;SDS011;43650;48.064;20.624;2023-02-18T04:50:02;5.07;;;2.07;;
57822;SDS011;43650;48.064;20.624;2023-02-18T04:51:03;4.10;;;2.47;;
57822;SDS011;43650;48.064;20.624;2023-02-18T04:52:04;3.62;;;2.20;;
57822;SDS011;43650;48.064;20.624;2023-02-18T04:53:04;5.30;;;2.50;;
57822;SDS011;43650;48.064;20.624;2023-02-18T04:54:05;3.70;;;2.27;;
57822;SDS011;43650;48.064;20.624;2023-02-18T04:55:05;2.53;;;1.70;;
57822;SDS011;43650;48.064;20.624;2023-02-18T04:56:06;3.75;;;2.17;;
57822;SDS011;43650;48.064;20.624;2023-02-18T04:57:07;3.27;;;2.40;;
57822;SDS011;43650;48.064;20.624;2023-02-18T04:58:07;3.57;;;2.33;;
57822;SDS011;43650;48.064;20.624;2023-02-18T04:59:09;4.07;;;2.33;;
57822;SDS011;43650;48.064;20.624;2023-02-18T05:00:12;5.10;;;2.70;;
57822;SDS011;43650;48.064;20.624;2023-02-18T05:01:15;3.05;;;2.60;;
57822;SDS011;43650;48.064;20.624;2023-02-18T05:02:15;4.60;;;2.33;;
57822;SDS011;43650;48.064;20.624;2023-02-18T05:03:16;5.97;;;3.15;;
57822;SDS011;43650;48.064;20.624;2023-02-18T05:04:17;4.57;;;2.67;;
57822;SDS011;43650;48.064;20.624;2023-02-18T05:05:17;3.53;;;2.13;;
57822;SDS011;43650;48.064;20.624;2023-02-18T05:06:18;6.10;;;2.37;;
57822;SDS011;43650;48.064;20.624;2023-02-18T05:07:18;4.40;;;2.50;;
57822;SDS011;43650;48.064;20.624;2023-02-18T05:08:19;3.57;;;2.27;;
57822;SDS011;43650;48.064;20.624;2023-02-18T05:09:19;4.80;;;2.63;;
57822;SDS011;43650;48.064;20.624;2023-02-18T05:10:19;3.83;;;2.03;;
57822;SDS011;43650;48.064;20.624;2023-02-18T05:11:20;4.90;;;2.47;;
57822;SDS011;43650;48.064;20.624;2023-02-18T05:12:20;3.80;;;1.87;;
57822;SDS011;43650;48.064;20.624;2023-02-18T05:13:21;4.23;;;2.20;;
57822;SDS011;43650;48.064;20.624;2023-02-18T05:14:21;5.82;;;2.75;;
57822;SDS011;43650;48.064;20.624;2023-02-18T05:15:22;3.53;;;2.23;;
57822;SDS011;43650;48.064;20.624;2023-02-18T05:16:22;4.37;;;2.67;;
57822;SDS011;43650;48.064;20.624;2023-02-18T05:17:23;3.77;;;2.03;;
57822;SDS011;43650;48.064;20.624;2023-02-18T05:18:23;2.97;;;1.73;;
57822;SDS011;43650;48.064;20.624;2023-02-18T05:19:23;4.77;;;2.73;;
57822;SDS011;43650;48.064;20.624;2023-02-18T05:20:24;4.23;;;2.33;;
57822;SDS011;43650;48.064;20.624;2023-02-18T05:21:24;3.30;;;2.13;;
57822;SDS011;43650;48.064;20.624;2023-02-18T05:22:25;4.10;;;2.63;;
57822;SDS011;43650;48.064;20.624;2023-02-18T05:23:25;2.73;;;2.07;;
57822;SDS011;43650;48.064;20.624;2023-02-18T05:24:26;3.67;;;2.30;;
57822;SDS011;43650;48.064;20.624;2023-02-18T05:25:26;2.37;;;1.97;;
57822;SDS011;43650;48.064;20.624;2023-02-18T05:26:27;3.27;;;2.33;;
57822;SDS011;43650;48.064;20.624;2023-02-18T05:27:27;4.10;;;2.00;;
57822;SDS011;43650;48.064;20.624;2023-02-18T05:28:28;2.77;;;2.07;;
57822;SDS011;43650;48.064;20.624;2023-02-18T05:29:28;3.07;;;1.90;;
57822;SDS011;43650;48.064;20.624;2023-02-18T05:30:28;4.33;;;2.30;;
57822;SDS011;43650;48.064;20.624;2023-02-18T05:31:29;3.93;;;2.50;;
57822;SDS011;43650;48.064;20.624;2023-02-18T05:32:29;3.03;;;1.80;;
57822;SDS011;43650;48.064;20.624;2023-02-18T05:33:30;5.00;;;2.20;;
57822;SDS011;43650;48.064;20.624;2023-02-18T05:34:30;5.03;;;2.77;;
57822;SDS011;43650;48.064;20.624;2023-02-18T05:35:31;2.87;;;1.67;;
57822;SDS011;43650;48.064;20.624;2023-02-18T05:36:31;2.83;;;2.13;;
57822;SDS011;43650;48.064;20.624;2023-02-18T05:37:31;5.27;;;2.30;;
57822;SDS011;43650;48.064;20.624;2023-02-18T05:38:32;3.03;;;2.23;;
57822;SDS011;43650;48.064;20.624;2023-02-18T05:39:32;3.17;;;2.30;;
57822;SDS011;43650;48.064;20.624;2023-02-18T05:40:33;4.07;;;2.03;;
57822;SDS011;43650;48.064;20.624;2023-02-18T05:41:33;4.13;;;2.57;;
57822;SDS011;43650;48.064;20.624;2023-02-18T05:42:34;6.27;;;2.70;;
57822;SDS011;43650;48.064;20.624;2023-02-18T05:43:34;5.93;;;3.47;;
57822;SDS011;43650;48.064;20.624;2023-02-18T05:44:54;4.82;;;2.60;;
57822;SDS011;43650;48.064;20.624;2023-02-18T05:45:55;3.13;;;2.17;;
57822;SDS011;43650;48.064;20.624;2023-02-18T05:46:56;3.90;;;2.20;;
57822;SDS011;43650;48.064;20.624;2023-02-18T05:47:57;3.92;;;2.70;;
57822;SDS011;43650;48.064;20.624;2023-02-18T05:48:58;3.50;;;2.20;;
57822;SDS011;43650;48.064;20.624;2023-02-18T05:49:58;5.13;;;2.80;;
57822;SDS011;43650;48.064;20.624;2023-02-18T05:50:58;4.00;;;1.90;;
57822;SDS011;43650;48.064;20.624;2023-02-18T05:51:59;4.33;;;2.83;;
57822;SDS011;43650;48.064;20.624;2023-02-18T05:53:00;4.95;;;2.60;;
57822;SDS011;43650;48.064;20.624;2023-02-18T05:54:00;4.27;;;2.20;;
57822;SDS011;43650;48.064;20.624;2023-02-18T05:55:01;3.53;;;1.90;;
57822;SDS011;43650;48.064;20.624;2023-02-18T05:56:02;4.30;;;2.30;;
57822;SDS011;43650;48.064;20.624;2023-02-18T05:57:02;5.50;;;3.23;;
57822;SDS011;43650;48.064;20.624;2023-02-18T05:58:03;6.90;;;2.47;;
57822;SDS011;43650;48.064;20.624;2023-02-18T05:59:04;6.80;;;3.17;;
57822;SDS011;43650;48.064;20.624;2023-02-18T06:00:05;6.50;;;2.00;;
57822;SDS011;43650;48.064;20.624;2023-02-18T06:01:08;4.50;;;2.83;;
57822;SDS011;43650;48.064;20.624;2023-02-18T06:02:08;6.00;;;2.30;;
57822;SDS011;43650;48.064;20.624;2023-02-18T06:03:09;9.60;;;4.40;;
57822;SDS011;43650;48.064;20.624;2023-02-18T06:04:09;9.00;;;3.30;;
57822;SDS011;43650;48.064;20.624;2023-02-18T06:05:10;17.93;;;7.50;;
57822;SDS011;43650;48.064;20.624;2023-02-18T06:06:10;8.77;;;3.90;;
57822;SDS011;43650;48.064;20.624;2023-02-18T06:07:11;32.73;;;15.53;;
57822;SDS011;43650;48.064;20.624;2023-02-18T06:08:11;11.85;;;5.30;;
57822;SDS011;43650;48.064;20.624;2023-02-18T06:09:12;19.50;;;9.10;;
57822;SDS011;43650;48.064;20.624;2023-02-18T06:10:12;8.60;;;3.50;;
57822;SDS011;43650;48.064;20.624;2023-02-18T06:11:13;29.20;;;11.98;;
57822;SDS011;43650;48.064;20.624;2023-02-18T06:12:13;3.30;;;1.97;;
57822;SDS011;43650;48.064;20.624;2023-02-18T06:13:14;15.40;;;7.13;;
57822;SDS011;43650;48.064;20.624;2023-02-18T06:14:14;8.07;;;3.63;;
57822;SDS011;43650;48.064;20.624;2023-02-18T06:15:15;10.70;;;6.00;;
57822;SDS011;43650;48.064;20.624;2023-02-18T06:16:16;4.12;;;2.10;;
57822;SDS011;43650;48.064;20.624;2023-02-18T06:17:16;4.73;;;2.50;;
57822;SDS011;43650;48.064;20.624;2023-02-18T06:18:17;4.68;;;2.83;;
57822;SDS011;43650;48.064;20.624;2023-02-18T06:19:18;11.03;;;4.80;;
57822;SDS011;43650;48.064;20.624;2023-02-18T06:20:18;8.00;;;4.30;;
57822;SDS011;43650;48.064;20.624;2023-02-18T06:21:19;16.43;;;6.37;;
57822;SDS011;43650;48.064;20.624;2023-02-18T06:22:19;6.37;;;3.77;;
57822;SDS011;43650;48.064;20.624;2023-02-18T06:23:20;4.63;;;2.63;;
57822;SDS011;43650;48.064;20.624;2023-02-18T06:24:20;4.77;;;3.73;;
57822;SDS011;43650;48.064;20.624;2023-02-18T06:25:21;3.87;;;2.23;;
57822;SDS011;43650;48.064;20.624;2023-02-18T06:26:21;5.50;;;2.28;;
57822;SDS011;43650;48.064;20.624;2023-02-18T06:27:22;5.97;;;3.25;;
57822;SDS011;43650;48.064;20.624;2023-02-18T06:28:22;8.40;;;5.07;;
57822;SDS011;43650;48.064;20.624;2023-02-18T06:29:23;3.53;;;2.00;;
57822;SDS011;43650;48.064;20.624;2023-02-18T06:30:24;8.52;;;3.37;;
57822;SDS011;43650;48.064;20.624;2023-02-18T06:31:24;5.83;;;3.90;;
57822;SDS011;43650;48.064;20.624;2023-02-18T06:32:24;10.30;;;4.93;;
57822;SDS011;43650;48.064;20.624;2023-02-18T06:33:25;54.73;;;24.00;;
57822;SDS011;43650;48.064;20.624;2023-02-18T06:34:26;58.77;;;23.57;;
57822;SDS011;43650;48.064;20.624;2023-02-18T06:35:26;3.30;;;2.00;;
57822;SDS011;43650;48.064;20.624;2023-02-18T06:36:27;2.33;;;1.47;;
57822;SDS011;43650;48.064;20.624;2023-02-18T06:37:27;2.53;;;2.00;;
57822;SDS011;43650;48.064;20.624;2023-02-18T06:38:28;3.07;;;2.13;;
57822;SDS011;43650;48.064;20.624;2023-02-18T06:39:28;4.80;;;2.00;;
57822;SDS011;43650;48.064;20.624;2023-02-18T06:40:28;3.63;;;1.90;;
57822;SDS011;43650;48.064;20.624;2023-02-18T06:41:29;2.77;;;2.10;;
57822;SDS011;43650;48.064;20.624;2023-02-18T06:42:30;6.55;;;3.58;;
57822;SDS011;43650;48.064;20.624;2023-02-18T06:43:30;4.43;;;2.87;;
57822;SDS011;43650;48.064;20.624;2023-02-18T06:44:31;4.22;;;2.12;;
57822;SDS011;43650;48.064;20.624;2023-02-18T06:45:31;4.10;;;2.90;;
57822;SDS011;43650;48.064;20.624;2023-02-18T06:46:32;2.00;;;1.33;;
57822;SDS011;43650;48.064;20.624;2023-02-18T06:47:33;3.12;;;1.70;;
57822;SDS011;43650;48.064;20.624;2023-02-18T06:48:33;1.50;;;1.30;;
57822;SDS011;43650;48.064;20.624;2023-02-18T06:49:34;4.87;;;2.63;;
57822;SDS011;43650;48.064;20.624;2023-02-18T06:50:35;6.53;;;3.05;;
57822;SDS011;43650;48.064;20.624;2023-02-18T06:51:36;20.70;;;10.10;;